sensor_id;sensor_type;location;lat;lon;timestamp;P1;durP1;ratioP1;P2;durP2;ratioP2
26080;SDS011;13991;51.174;4.438;2022-07-03T00:00:58;7.47;;;1.17;;
26080;SDS011;13991;51.174;4.438;2022-07-03T00:03:23;3.10;;;0.60;;
26080;SDS011;13991;51.174;4.438;2022-07-03T00:05:49;5.20;;;0.50;;
26080;SDS011;13991;51.174;4.438;2022-07-03T00:08:15;7.00;;;0.70;;
26080;SDS011;13991;51.174;4.438;2022-07-03T00:10:40;7.97;;;0.97;;
26080;SDS011;13991;51.174;4.438;2022-07-03T00:13:13;3.90;;;0.70;;
26080;SDS011;13991;51.174;4.438;2022-07-03T00:15:39;9.07;;;0.53;;
26080;SDS011;13991;51.174;4.438;2022-07-03T00:18:05;6.60;;;0.90;;
26080;SDS011;13991;51.174;4.438;2022-07-03T00:20:32;3.77;;;0.67;;
26080;SDS011;13991;51.174;4.438;2022-07-03T00:23:04;5.00;;;0.80;;
26080;SDS011;13991;51.174;4.438;2022-07-03T00:25:31;7.60;;;0.63;;
26080;SDS011;13991;51.174;4.438;2022-07-03T00:27:58;5.13;;;0.67;;
26080;SDS011;13991;51.174;4.438;2022-07-03T00:30:24;5.30;;;0.90;;
26080;SDS011;13991;51.174;4.438;2022-07-03T00:32:51;1.03;;;0.30;;
26080;SDS011;13991;51.174;4.438;2022-07-03T00:35:18;12.17;;;0.70;;
26080;SDS011;13991;51.174;4.438;2022-07-03T00:37:44;8.23;;;0.80;;
26080;SDS011;13991;51.174;4.438;2022-07-03T00:40:16;2.87;;;0.70;;
26080;SDS011;13991;51.174;4.438;2022-07-03T00:42:43;4.73;;;0.87;;
26080;SDS011;13991;51.174;4.438;2022-07-03T00:45:16;6.90;;;0.80;;
26080;SDS011;13991;51.174;4.438;2022-07-03T00:47:45;9.13;;;1.13;;
26080;SDS011;13991;51.174;4.438;2022-07-03T00:50:11;9.20;;;1.37;;
26080;SDS011;13991;51.174;4.438;2022-07-03T00:52:38;8.13;;;0.80;;
26080;SDS011;13991;51.174;4.438;2022-07-03T00:55:08;10.60;;;1.30;;
26080;SDS011;13991;51.174;4.438;2022-07-03T00:57:46;7.30;;;1.30;;
26080;SDS011;13991;51.174;4.438;2022-07-03T01:00:13;12.30;;;1.87;;
26080;SDS011;13991;51.174;4.438;2022-07-03T01:08:08;11.20;;;1.20;;
26080;SDS011;13991;51.174;4.438;2022-07-03T01:30:07;10.17;;;1.37;;
26080;SDS011;13991;51.174;4.438;2022-07-03T01:32:44;9.23;;;0.97;;
26080;SDS011;13991;51.174;4.438;2022-07-03T01:35:18;3.53;;;0.83;;
26080;SDS011;13991;51.174;4.438;2022-07-03T01:37:46;13.60;;;1.27;;
26080;SDS011;13991;51.174;4.438;2022-07-03T01:40:15;6.43;;;1.07;;
26080;SDS011;13991;51.174;4.438;2022-07-03T01:42:42;4.73;;;1.20;;
26080;SDS011;13991;51.174;4.438;2022-07-03T01:45:11;8.50;;;1.00;;
26080;SDS011;13991;51.174;4.438;2022-07-03T01:47:40;6.50;;;1.43;;
26080;SDS011;13991;51.174;4.438;2022-07-03T01:50:11;7.70;;;1.23;;
26080;SDS011;13991;51.174;4.438;2022-07-03T01:52:40;7.63;;;1.07;;
26080;SDS011;13991;51.174;4.438;2022-07-03T01:55:10;8.50;;;1.10;;
26080;SDS011;13991;51.174;4.438;2022-07-03T01:57:46;6.80;;;0.90;;
26080;SDS011;13991;51.174;4.438;2022-07-03T02:00:16;7.47;;;1.23;;
26080;SDS011;13991;51.174;4.438;2022-07-03T02:02:45;3.80;;;0.87;;
26080;SDS011;13991;51.174;4.438;2022-07-03T02:05:22;11.03;;;1.30;;
26080;SDS011;13991;51.174;4.438;2022-07-03T02:08:15;12.33;;;1.20;;
26080;SDS011;13991;51.174;4.438;2022-07-03T02:10:50;8.80;;;1.13;;
26080;SDS011;13991;51.174;4.438;2022-07-03T02:13:28;4.10;;;0.90;;
26080;SDS011;13991;51.174;4.438;2022-07-03T02:15:56;5.50;;;1.20;;
26080;SDS011;13991;51.174;4.438;2022-07-03T02:18:25;4.57;;;1.03;;
26080;SDS011;13991;51.174;4.438;2022-07-03T02:21:19;4.60;;;0.70;;
26080;SDS011;13991;51.174;4.438;2022-07-03T02:24:03;5.73;;;0.97;;
26080;SDS011;13991;51.174;4.438;2022-07-03T02:26:42;10.57;;;0.90;;
26080;SDS011;13991;51.174;4.438;2022-07-03T02:29:17;2.20;;;0.87;;
26080;SDS011;13991;51.174;4.438;2022-07-03T02:31:54;7.30;;;1.10;;
26080;SDS011;13991;51.174;4.438;2022-07-03T02:34:24;7.00;;;1.00;;
26080;SDS011;13991;51.174;4.438;2022-07-03T02:36:55;6.43;;;0.87;;
26080;SDS011;13991;51.174;4.438;2022-07-03T02:39:26;5.03;;;0.90;;
26080;SDS011;13991;51.174;4.438;2022-07-03T02:42:22;3.77;;;0.90;;
26080;SDS011;13991;51.174;4.438;2022-07-03T02:44:56;4.27;;;1.30;;
26080;SDS011;13991;51.174;4.438;2022-07-03T02:52:31;15.60;;;0.97;;
26080;SDS011;13991;51.174;4.438;2022-07-03T03:00:30;4.73;;;0.93;;
26080;SDS011;13991;51.174;4.438;2022-07-03T03:03:00;4.20;;;0.90;;
26080;SDS011;13991;51.174;4.438;2022-07-03T03:10:30;2.90;;;0.70;;
26080;SDS011;13991;51.174;4.438;2022-07-03T03:13:07;2.73;;;0.70;;
26080;SDS011;13991;51.174;4.438;2022-07-03T03:15:38;6.43;;;0.80;;
26080;SDS011;13991;51.174;4.438;2022-07-03T03:18:08;8.00;;;0.70;;
26080;SDS011;13991;51.174;4.438;2022-07-03T03:20:37;6.60;;;0.70;;
26080;SDS011;13991;51.174;4.438;2022-07-03T03:23:16;6.10;;;0.70;;
26080;SDS011;13991;51.174;4.438;2022-07-03T03:26:01;3.73;;;0.83;;
26080;SDS011;13991;51.174;4.438;2022-07-03T03:28:27;1.13;;;0.60;;
26080;SDS011;13991;51.174;4.438;2022-07-03T03:30:53;9.83;;;1.10;;
26080;SDS011;13991;51.174;4.438;2022-07-03T03:33:18;4.53;;;0.67;;
26080;SDS011;13991;51.174;4.438;2022-07-03T03:35:44;3.30;;;0.70;;
26080;SDS011;13991;51.174;4.438;2022-07-03T03:38:11;4.77;;;0.50;;
26080;SDS011;13991;51.174;4.438;2022-07-03T03:40:37;3.23;;;0.80;;
26080;SDS011;13991;51.174;4.438;2022-07-03T03:43:04;10.10;;;0.93;;
26080;SDS011;13991;51.174;4.438;2022-07-03T03:45:30;2.17;;;0.60;;
26080;SDS011;13991;51.174;4.438;2022-07-03T03:47:55;3.93;;;0.60;;
26080;SDS011;13991;51.174;4.438;2022-07-03T03:50:21;3.43;;;1.00;;
26080;SDS011;13991;51.174;4.438;2022-07-03T03:52:48;3.33;;;0.63;;
26080;SDS011;13991;51.174;4.438;2022-07-03T03:55:14;4.27;;;0.70;;
26080;SDS011;13991;51.174;4.438;2022-07-03T03:57:39;6.40;;;0.80;;
26080;SDS011;13991;51.174;4.438;2022-07-03T04:00:05;10.17;;;0.80;;
26080;SDS011;13991;51.174;4.438;2022-07-03T04:02:32;4.30;;;0.60;;
26080;SDS011;13991;51.174;4.438;2022-07-03T04:04:57;2.93;;;0.60;;
26080;SDS011;13991;51.174;4.438;2022-07-03T04:07:28;7.43;;;0.90;;
26080;SDS011;13991;51.174;4.438;2022-07-03T04:09:54;4.70;;;0.43;;
26080;SDS011;13991;51.174;4.438;2022-07-03T04:12:20;4.17;;;0.70;;
26080;SDS011;13991;51.174;4.438;2022-07-03T04:14:45;2.47;;;0.60;;
26080;SDS011;13991;51.174;4.438;2022-07-03T04:17:11;2.57;;;0.50;;
26080;SDS011;13991;51.174;4.438;2022-07-03T04:19:37;1.60;;;0.60;;
26080;SDS011;13991;51.174;4.438;2022-07-03T04:22:02;8.30;;;0.57;;
26080;SDS011;13991;51.174;4.438;2022-07-03T04:24:33;4.80;;;0.90;;
26080;SDS011;13991;51.174;4.438;2022-07-03T04:27:00;3.33;;;0.60;;
26080;SDS011;13991;51.174;4.438;2022-07-03T04:29:26;3.73;;;0.93;;
26080;SDS011;13991;51.174;4.438;2022-07-03T04:31:51;9.83;;;1.03;;
26080;SDS011;13991;51.174;4.438;2022-07-03T04:34:17;5.70;;;0.60;;
26080;SDS011;13991;51.174;4.438;2022-07-03T04:36:43;1.57;;;0.63;;
26080;SDS011;13991;51.174;4.438;2022-07-03T04:39:08;3.73;;;0.70;;
26080;SDS011;13991;51.174;4.438;2022-07-03T04:41:34;6.83;;;0.57;;
26080;SDS011;13991;51.174;4.438;2022-07-03T04:44:00;6.03;;;0.80;;
26080;SDS011;13991;51.174;4.438;2022-07-03T04:46:30;4.37;;;0.77;;
26080;SDS011;13991;51.174;4.438;2022-07-03T04:48:59;4.40;;;0.90;;
26080;SDS011;13991;51.174;4.438;2022-07-03T04:51:24;1.13;;;0.60;;
26080;SDS011;13991;51.174;4.438;2022-07-03T04:53:50;2.63;;;1.20;;
26080;SDS011;13991;51.174;4.438;2022-07-03T04:56:16;5.63;;;0.80;;
26080;SDS011;13991;51.174;4.438;2022-07-03T04:58:41;6.83;;;1.13;;
26080;SDS011;13991;51.174;4.438;2022-07-03T05:01:07;3.30;;;1.13;;
26080;SDS011;13991;51.174;4.438;2022-07-03T05:03:33;7.90;;;1.47;;
26080;SDS011;13991;51.174;4.438;2022-07-03T05:05:58;4.53;;;1.40;;
26080;SDS011;13991;51.174;4.438;2022-07-03T05:08:24;2.83;;;1.00;;
26080;SDS011;13991;51.174;4.438;2022-07-03T05:10:54;6.63;;;1.50;;
26080;SDS011;13991;51.174;4.438;2022-07-03T05:13:20;4.93;;;1.73;;
26080;SDS011;13991;51.174;4.438;2022-07-03T05:15:46;7.53;;;2.20;;
26080;SDS011;13991;51.174;4.438;2022-07-03T05:18:22;8.43;;;2.17;;
26080;SDS011;13991;51.174;4.438;2022-07-03T05:20:50;6.67;;;2.07;;
26080;SDS011;13991;51.174;4.438;2022-07-03T05:23:16;5.43;;;2.37;;
26080;SDS011;13991;51.174;4.438;2022-07-03T05:25:41;10.47;;;2.63;;
26080;SDS011;13991;51.174;4.438;2022-07-03T05:28:07;10.60;;;3.10;;
26080;SDS011;13991;51.174;4.438;2022-07-03T05:30:33;7.07;;;2.63;;
26080;SDS011;13991;51.174;4.438;2022-07-03T05:32:58;12.00;;;3.30;;
26080;SDS011;13991;51.174;4.438;2022-07-03T05:35:24;13.13;;;3.20;;
26080;SDS011;13991;51.174;4.438;2022-07-03T05:37:50;7.30;;;3.10;;
26080;SDS011;13991;51.174;4.438;2022-07-03T05:40:16;14.40;;;3.30;;
26080;SDS011;13991;51.174;4.438;2022-07-03T05:42:42;8.57;;;3.10;;
26080;SDS011;13991;51.174;4.438;2022-07-03T05:45:08;12.60;;;3.40;;
26080;SDS011;13991;51.174;4.438;2022-07-03T05:47:34;3.77;;;2.33;;
26080;SDS011;13991;51.174;4.438;2022-07-03T05:50:00;9.70;;;2.93;;
26080;SDS011;13991;51.174;4.438;2022-07-03T05:52:25;10.30;;;3.13;;
26080;SDS011;13991;51.174;4.438;2022-07-03T05:54:52;13.30;;;3.60;;
26080;SDS011;13991;51.174;4.438;2022-07-03T05:57:18;11.43;;;3.43;;
26080;SDS011;13991;51.174;4.438;2022-07-03T05:59:45;12.30;;;4.60;;
26080;SDS011;13991;51.174;4.438;2022-07-03T06:02:11;27.63;;;3.80;;
26080;SDS011;13991;51.174;4.438;2022-07-03T06:04:36;10.67;;;3.83;;
26080;SDS011;13991;51.174;4.438;2022-07-03T06:07:02;13.20;;;3.83;;
26080;SDS011;13991;51.174;4.438;2022-07-03T06:09:28;8.57;;;3.30;;
26080;SDS011;13991;51.174;4.438;2022-07-03T06:11:54;10.90;;;3.47;;
26080;SDS011;13991;51.174;4.438;2022-07-03T06:14:19;9.57;;;3.00;;
26080;SDS011;13991;51.174;4.438;2022-07-03T06:16:45;14.23;;;3.67;;
26080;SDS011;13991;51.174;4.438;2022-07-03T06:19:11;17.77;;;3.67;;
26080;SDS011;13991;51.174;4.438;2022-07-03T06:21:36;11.50;;;3.77;;
26080;SDS011;13991;51.174;4.438;2022-07-03T06:24:02;13.00;;;3.53;;
26080;SDS011;13991;51.174;4.438;2022-07-03T06:28:56;14.60;;;3.80;;
26080;SDS011;13991;51.174;4.438;2022-07-03T06:31:21;11.73;;;4.03;;
26080;SDS011;13991;51.174;4.438;2022-07-03T06:33:47;12.40;;;3.60;;
26080;SDS011;13991;51.174;4.438;2022-07-03T06:36:13;18.90;;;3.37;;
26080;SDS011;13991;51.174;4.438;2022-07-03T06:38:40;10.20;;;3.90;;
26080;SDS011;13991;51.174;4.438;2022-07-03T06:41:06;10.73;;;3.33;;
26080;SDS011;13991;51.174;4.438;2022-07-03T06:43:32;11.80;;;3.60;;
26080;SDS011;13991;51.174;4.438;2022-07-03T06:45:57;9.73;;;3.50;;
26080;SDS011;13991;51.174;4.438;2022-07-03T06:48:23;10.40;;;3.47;;
26080;SDS011;13991;51.174;4.438;2022-07-03T06:50:53;9.30;;;3.57;;
26080;SDS011;13991;51.174;4.438;2022-07-03T06:53:19;17.93;;;4.17;;
26080;SDS011;13991;51.174;4.438;2022-07-03T06:55:45;9.70;;;3.63;;
26080;SDS011;13991;51.174;4.438;2022-07-03T06:58:10;14.70;;;4.07;;
26080;SDS011;13991;51.174;4.438;2022-07-03T07:00:36;12.33;;;3.50;;
26080;SDS011;13991;51.174;4.438;2022-07-03T07:03:03;15.87;;;3.93;;
26080;SDS011;13991;51.174;4.438;2022-07-03T07:05:29;11.63;;;3.57;;
26080;SDS011;13991;51.174;4.438;2022-07-03T07:07:55;7.93;;;3.37;;
26080;SDS011;13991;51.174;4.438;2022-07-03T07:10:20;7.10;;;3.10;;
26080;SDS011;13991;51.174;4.438;2022-07-03T07:12:49;5.80;;;2.90;;
26080;SDS011;13991;51.174;4.438;2022-07-03T07:15:15;12.50;;;2.70;;
26080;SDS011;13991;51.174;4.438;2022-07-03T07:17:41;10.73;;;3.43;;
26080;SDS011;13991;51.174;4.438;2022-07-03T07:20:07;8.03;;;3.47;;
26080;SDS011;13991;51.174;4.438;2022-07-03T07:22:38;11.47;;;2.83;;
26080;SDS011;13991;51.174;4.438;2022-07-03T07:25:03;11.17;;;3.67;;
26080;SDS011;13991;51.174;4.438;2022-07-03T07:27:29;8.83;;;3.70;;
26080;SDS011;13991;51.174;4.438;2022-07-03T07:29:55;10.97;;;3.80;;
26080;SDS011;13991;51.174;4.438;2022-07-03T07:32:21;10.53;;;3.47;;
26080;SDS011;13991;51.174;4.438;2022-07-03T07:34:51;10.70;;;3.47;;
26080;SDS011;13991;51.174;4.438;2022-07-03T07:37:17;9.77;;;3.67;;
26080;SDS011;13991;51.174;4.438;2022-07-03T07:39:42;13.17;;;3.97;;
26080;SDS011;13991;51.174;4.438;2022-07-03T07:42:08;7.63;;;3.17;;
26080;SDS011;13991;51.174;4.438;2022-07-03T07:44:34;10.43;;;4.27;;
26080;SDS011;13991;51.174;4.438;2022-07-03T07:46:59;10.97;;;3.20;;
26080;SDS011;13991;51.174;4.438;2022-07-03T07:49:25;7.87;;;3.63;;
26080;SDS011;13991;51.174;4.438;2022-07-03T07:51:51;11.23;;;3.33;;
26080;SDS011;13991;51.174;4.438;2022-07-03T07:54:16;10.23;;;3.33;;
26080;SDS011;13991;51.174;4.438;2022-07-03T07:56:42;7.70;;;2.93;;
26080;SDS011;13991;51.174;4.438;2022-07-03T07:59:08;6.17;;;2.60;;
26080;SDS011;13991;51.174;4.438;2022-07-03T08:01:36;7.73;;;2.00;;
26080;SDS011;13991;51.174;4.438;2022-07-03T08:04:20;12.03;;;2.77;;
26080;SDS011;13991;51.174;4.438;2022-07-03T08:07:04;5.97;;;1.83;;
26080;SDS011;13991;51.174;4.438;2022-07-03T08:09:30;7.50;;;2.00;;
26080;SDS011;13991;51.174;4.438;2022-07-03T08:11:56;8.87;;;1.53;;
26080;SDS011;13991;51.174;4.438;2022-07-03T08:14:21;5.50;;;1.30;;
26080;SDS011;13991;51.174;4.438;2022-07-03T08:16:48;3.80;;;1.30;;
26080;SDS011;13991;51.174;4.438;2022-07-03T08:19:16;8.80;;;1.40;;
26080;SDS011;13991;51.174;4.438;2022-07-03T08:21:48;7.63;;;1.20;;
26080;SDS011;13991;51.174;4.438;2022-07-03T08:24:14;7.23;;;1.40;;
26080;SDS011;13991;51.174;4.438;2022-07-03T08:26:41;6.17;;;1.27;;
26080;SDS011;13991;51.174;4.438;2022-07-03T08:29:08;5.40;;;0.87;;
26080;SDS011;13991;51.174;4.438;2022-07-03T08:31:38;9.00;;;0.87;;
26080;SDS011;13991;51.174;4.438;2022-07-03T08:34:04;9.40;;;1.23;;
26080;SDS011;13991;51.174;4.438;2022-07-03T08:36:30;7.13;;;1.00;;
26080;SDS011;13991;51.174;4.438;2022-07-03T08:38:56;6.97;;;1.37;;
26080;SDS011;13991;51.174;4.438;2022-07-03T08:41:24;5.50;;;1.53;;
26080;SDS011;13991;51.174;4.438;2022-07-03T08:43:52;9.87;;;1.40;;
26080;SDS011;13991;51.174;4.438;2022-07-03T08:46:20;3.20;;;0.87;;
26080;SDS011;13991;51.174;4.438;2022-07-03T08:48:45;6.93;;;0.93;;
26080;SDS011;13991;51.174;4.438;2022-07-03T08:51:14;5.10;;;1.30;;
26080;SDS011;13991;51.174;4.438;2022-07-03T08:53:41;7.87;;;1.60;;
26080;SDS011;13991;51.174;4.438;2022-07-03T08:56:09;5.63;;;0.93;;
26080;SDS011;13991;51.174;4.438;2022-07-03T08:58:35;4.33;;;1.03;;
26080;SDS011;13991;51.174;4.438;2022-07-03T09:01:02;7.80;;;1.17;;
26080;SDS011;13991;51.174;4.438;2022-07-03T09:03:27;5.60;;;1.00;;
26080;SDS011;13991;51.174;4.438;2022-07-03T09:05:54;8.20;;;1.20;;
26080;SDS011;13991;51.174;4.438;2022-07-03T09:08:21;5.10;;;0.90;;
26080;SDS011;13991;51.174;4.438;2022-07-03T09:10:51;8.67;;;1.17;;
26080;SDS011;13991;51.174;4.438;2022-07-03T09:13:19;5.37;;;1.40;;
26080;SDS011;13991;51.174;4.438;2022-07-03T09:15:51;3.60;;;0.80;;
26080;SDS011;13991;51.174;4.438;2022-07-03T09:18:21;7.23;;;0.90;;
26080;SDS011;13991;51.174;4.438;2022-07-03T09:21:05;6.10;;;0.77;;
26080;SDS011;13991;51.174;4.438;2022-07-03T09:23:35;4.87;;;0.83;;
26080;SDS011;13991;51.174;4.438;2022-07-03T09:26:02;5.43;;;0.80;;
26080;SDS011;13991;51.174;4.438;2022-07-03T09:31:19;2.97;;;0.60;;
26080;SDS011;13991;51.174;4.438;2022-07-03T09:36:36;3.03;;;0.90;;
26080;SDS011;13991;51.174;4.438;2022-07-03T09:39:25;2.73;;;0.70;;
26080;SDS011;13991;51.174;4.438;2022-07-03T09:42:00;5.57;;;0.90;;
26080;SDS011;13991;51.174;4.438;2022-07-03T09:47:20;3.17;;;0.63;;
26080;SDS011;13991;51.174;4.438;2022-07-03T09:49:52;3.03;;;0.90;;
26080;SDS011;13991;51.174;4.438;2022-07-03T10:00:31;6.10;;;0.57;;
26080;SDS011;13991;51.174;4.438;2022-07-03T10:03:06;5.87;;;0.80;;
26080;SDS011;13991;51.174;4.438;2022-07-03T10:05:34;7.13;;;0.70;;
26080;SDS011;13991;51.174;4.438;2022-07-03T10:08:03;5.33;;;0.50;;
26080;SDS011;13991;51.174;4.438;2022-07-03T10:10:34;3.50;;;0.63;;
26080;SDS011;13991;51.174;4.438;2022-07-03T10:13:04;3.60;;;0.57;;
26080;SDS011;13991;51.174;4.438;2022-07-03T10:15:31;3.83;;;0.37;;
26080;SDS011;13991;51.174;4.438;2022-07-03T10:18:01;3.80;;;0.30;;
26080;SDS011;13991;51.174;4.438;2022-07-03T10:20:34;2.10;;;0.30;;
26080;SDS011;13991;51.174;4.438;2022-07-03T10:23:10;6.67;;;0.40;;
26080;SDS011;13991;51.174;4.438;2022-07-03T10:25:37;7.27;;;0.47;;
26080;SDS011;13991;51.174;4.438;2022-07-03T10:30:38;5.27;;;0.50;;
26080;SDS011;13991;51.174;4.438;2022-07-03T10:33:07;2.40;;;0.47;;
26080;SDS011;13991;51.174;4.438;2022-07-03T10:35:33;3.70;;;0.50;;
26080;SDS011;13991;51.174;4.438;2022-07-03T10:43:33;0.37;;;0.37;;
26080;SDS011;13991;51.174;4.438;2022-07-03T10:46:23;3.17;;;0.53;;
26080;SDS011;13991;51.174;4.438;2022-07-03T10:51:21;0.50;;;0.27;;
26080;SDS011;13991;51.174;4.438;2022-07-03T10:53:49;3.83;;;0.40;;
26080;SDS011;13991;51.174;4.438;2022-07-03T10:56:15;3.23;;;0.40;;
26080;SDS011;13991;51.174;4.438;2022-07-03T10:58:59;2.37;;;0.50;;
26080;SDS011;13991;51.174;4.438;2022-07-03T11:01:26;3.27;;;0.23;;
26080;SDS011;13991;51.174;4.438;2022-07-03T11:03:59;7.87;;;0.40;;
26080;SDS011;13991;51.174;4.438;2022-07-03T11:07:10;3.27;;;0.33;;
26080;SDS011;13991;51.174;4.438;2022-07-03T11:09:22;3.37;;;0.30;;
26080;SDS011;13991;51.174;4.438;2022-07-03T11:11:48;1.77;;;0.30;;
26080;SDS011;13991;51.174;4.438;2022-07-03T11:14:20;2.07;;;0.30;;
26080;SDS011;13991;51.174;4.438;2022-07-03T11:17:15;2.47;;;0.30;;
26080;SDS011;13991;51.174;4.438;2022-07-03T11:19:46;0.93;;;0.20;;
26080;SDS011;13991;51.174;4.438;2022-07-03T11:22:51;0.83;;;0.20;;
26080;SDS011;13991;51.174;4.438;2022-07-03T11:25:42;3.30;;;0.20;;
26080;SDS011;13991;51.174;4.438;2022-07-03T11:31:18;1.33;;;0.37;;
26080;SDS011;13991;51.174;4.438;2022-07-03T11:44:06;2.93;;;0.50;;
26080;SDS011;13991;51.174;4.438;2022-07-03T11:46:34;1.53;;;0.30;;
26080;SDS011;13991;51.174;4.438;2022-07-03T11:52:04;3.50;;;0.40;;
26080;SDS011;13991;51.174;4.438;2022-07-03T11:54:48;9.17;;;0.70;;
26080;SDS011;13991;51.174;4.438;2022-07-03T11:57:15;2.13;;;0.30;;
26080;SDS011;13991;51.174;4.438;2022-07-03T11:59:41;2.43;;;0.47;;
26080;SDS011;13991;51.174;4.438;2022-07-03T12:02:07;5.63;;;0.60;;
26080;SDS011;13991;51.174;4.438;2022-07-03T12:04:33;3.57;;;0.67;;
26080;SDS011;13991;51.174;4.438;2022-07-03T12:06:59;4.97;;;0.50;;
26080;SDS011;13991;51.174;4.438;2022-07-03T12:09:30;2.67;;;0.53;;
26080;SDS011;13991;51.174;4.438;2022-07-03T12:12:18;6.17;;;0.50;;
26080;SDS011;13991;51.174;4.438;2022-07-03T12:14:55;5.40;;;0.40;;
26080;SDS011;13991;51.174;4.438;2022-07-03T12:17:24;6.63;;;0.70;;
26080;SDS011;13991;51.174;4.438;2022-07-03T12:19:52;3.53;;;0.50;;
26080;SDS011;13991;51.174;4.438;2022-07-03T12:22:22;3.87;;;0.43;;
26080;SDS011;13991;51.174;4.438;2022-07-03T12:24:59;3.37;;;0.73;;
26080;SDS011;13991;51.174;4.438;2022-07-03T12:27:30;3.50;;;0.40;;
26080;SDS011;13991;51.174;4.438;2022-07-03T12:29:57;4.43;;;0.50;;
26080;SDS011;13991;51.174;4.438;2022-07-03T12:32:23;1.93;;;0.40;;
26080;SDS011;13991;51.174;4.438;2022-07-03T12:34:49;9.43;;;0.83;;
26080;SDS011;13991;51.174;4.438;2022-07-03T12:37:15;2.30;;;0.70;;
26080;SDS011;13991;51.174;4.438;2022-07-03T12:39:44;4.53;;;0.33;;
26080;SDS011;13991;51.174;4.438;2022-07-03T12:42:14;4.77;;;0.87;;
26080;SDS011;13991;51.174;4.438;2022-07-03T12:44:41;1.57;;;0.40;;
26080;SDS011;13991;51.174;4.438;2022-07-03T12:47:07;2.10;;;0.30;;
26080;SDS011;13991;51.174;4.438;2022-07-03T12:49:32;1.27;;;0.30;;
26080;SDS011;13991;51.174;4.438;2022-07-03T12:51:58;5.07;;;0.50;;
26080;SDS011;13991;51.174;4.438;2022-07-03T12:54:34;0.97;;;0.40;;
26080;SDS011;13991;51.174;4.438;2022-07-03T12:57:06;3.43;;;0.70;;
26080;SDS011;13991;51.174;4.438;2022-07-03T13:00:04;1.83;;;0.40;;
26080;SDS011;13991;51.174;4.438;2022-07-03T13:02:35;8.50;;;0.57;;
26080;SDS011;13991;51.174;4.438;2022-07-03T13:07:43;2.47;;;0.50;;
26080;SDS011;13991;51.174;4.438;2022-07-03T13:10:09;6.03;;;0.40;;
26080;SDS011;13991;51.174;4.438;2022-07-03T13:12:44;2.13;;;0.37;;
26080;SDS011;13991;51.174;4.438;2022-07-03T13:15:14;6.77;;;0.47;;
26080;SDS011;13991;51.174;4.438;2022-07-03T13:20:26;3.67;;;0.40;;
26080;SDS011;13991;51.174;4.438;2022-07-03T13:23:00;2.73;;;0.30;;
26080;SDS011;13991;51.174;4.438;2022-07-03T13:25:28;5.70;;;0.30;;
26080;SDS011;13991;51.174;4.438;2022-07-03T13:28:14;3.70;;;0.30;;
26080;SDS011;13991;51.174;4.438;2022-07-03T13:30:41;2.43;;;0.40;;
26080;SDS011;13991;51.174;4.438;2022-07-03T13:33:07;3.80;;;0.53;;
26080;SDS011;13991;51.174;4.438;2022-07-03T13:35:35;6.80;;;0.50;;
26080;SDS011;13991;51.174;4.438;2022-07-03T13:38:01;5.53;;;0.50;;
26080;SDS011;13991;51.174;4.438;2022-07-03T13:40:27;10.03;;;0.50;;
26080;SDS011;13991;51.174;4.438;2022-07-03T13:42:53;3.67;;;0.50;;
26080;SDS011;13991;51.174;4.438;2022-07-03T13:45:19;2.53;;;0.50;;
26080;SDS011;13991;51.174;4.438;2022-07-03T13:47:45;5.43;;;0.47;;
26080;SDS011;13991;51.174;4.438;2022-07-03T13:50:11;2.27;;;0.50;;
26080;SDS011;13991;51.174;4.438;2022-07-03T13:52:37;3.90;;;0.50;;
26080;SDS011;13991;51.174;4.438;2022-07-03T13:55:05;7.00;;;0.40;;
26080;SDS011;13991;51.174;4.438;2022-07-03T13:57:31;8.30;;;0.73;;
26080;SDS011;13991;51.174;4.438;2022-07-03T13:59:58;11.70;;;0.67;;
26080;SDS011;13991;51.174;4.438;2022-07-03T14:02:24;6.60;;;0.60;;
26080;SDS011;13991;51.174;4.438;2022-07-03T14:04:51;5.50;;;0.60;;
26080;SDS011;13991;51.174;4.438;2022-07-03T14:07:16;3.40;;;0.50;;
26080;SDS011;13991;51.174;4.438;2022-07-03T14:09:42;3.90;;;0.60;;
26080;SDS011;13991;51.174;4.438;2022-07-03T14:12:08;5.00;;;0.70;;
26080;SDS011;13991;51.174;4.438;2022-07-03T14:14:34;6.00;;;0.50;;
26080;SDS011;13991;51.174;4.438;2022-07-03T14:17:02;7.53;;;0.73;;
26080;SDS011;13991;51.174;4.438;2022-07-03T14:19:27;1.53;;;0.40;;
26080;SDS011;13991;51.174;4.438;2022-07-03T14:21:53;1.10;;;0.30;;
26080;SDS011;13991;51.174;4.438;2022-07-03T14:24:19;5.47;;;0.40;;
26080;SDS011;13991;51.174;4.438;2022-07-03T14:26:44;9.60;;;1.00;;
26080;SDS011;13991;51.174;4.438;2022-07-03T14:29:29;2.20;;;0.40;;
26080;SDS011;13991;51.174;4.438;2022-07-03T14:32:13;8.17;;;1.90;;
26080;SDS011;13991;51.174;4.438;2022-07-03T14:34:53;5.97;;;0.47;;
26080;SDS011;13991;51.174;4.438;2022-07-03T14:37:20;3.63;;;0.50;;
26080;SDS011;13991;51.174;4.438;2022-07-03T14:39:46;3.97;;;0.40;;
26080;SDS011;13991;51.174;4.438;2022-07-03T14:42:15;6.57;;;0.70;;
26080;SDS011;13991;51.174;4.438;2022-07-03T14:44:42;3.53;;;0.40;;
26080;SDS011;13991;51.174;4.438;2022-07-03T14:47:08;3.77;;;0.30;;
26080;SDS011;13991;51.174;4.438;2022-07-03T14:49:33;6.07;;;0.57;;
26080;SDS011;13991;51.174;4.438;2022-07-03T14:52:03;7.57;;;0.57;;
26080;SDS011;13991;51.174;4.438;2022-07-03T14:54:29;1.87;;;0.30;;
26080;SDS011;13991;51.174;4.438;2022-07-03T14:57:00;2.73;;;0.30;;
26080;SDS011;13991;51.174;4.438;2022-07-03T15:02:01;5.20;;;0.60;;
26080;SDS011;13991;51.174;4.438;2022-07-03T15:04:40;3.80;;;0.50;;
26080;SDS011;13991;51.174;4.438;2022-07-03T15:07:30;3.20;;;0.50;;
26080;SDS011;13991;51.174;4.438;2022-07-03T15:10:03;4.10;;;0.70;;
26080;SDS011;13991;51.174;4.438;2022-07-03T15:12:32;6.90;;;0.40;;
26080;SDS011;13991;51.174;4.438;2022-07-03T15:15:00;6.37;;;0.30;;
26080;SDS011;13991;51.174;4.438;2022-07-03T15:17:27;3.30;;;0.47;;
26080;SDS011;13991;51.174;4.438;2022-07-03T15:19:53;4.43;;;0.30;;
26080;SDS011;13991;51.174;4.438;2022-07-03T15:22:22;5.77;;;0.50;;
26080;SDS011;13991;51.174;4.438;2022-07-03T15:24:49;4.90;;;0.67;;
26080;SDS011;13991;51.174;4.438;2022-07-03T15:27:19;5.77;;;0.50;;
26080;SDS011;13991;51.174;4.438;2022-07-03T15:29:46;1.77;;;0.30;;
26080;SDS011;13991;51.174;4.438;2022-07-03T15:32:12;1.40;;;0.23;;
26080;SDS011;13991;51.174;4.438;2022-07-03T15:34:39;5.27;;;0.93;;
26080;SDS011;13991;51.174;4.438;2022-07-03T15:37:12;2.93;;;0.37;;
26080;SDS011;13991;51.174;4.438;2022-07-03T15:40:07;2.17;;;0.50;;
26080;SDS011;13991;51.174;4.438;2022-07-03T15:42:47;2.83;;;0.40;;
26080;SDS011;13991;51.174;4.438;2022-07-03T15:53:59;1.57;;;0.50;;
26080;SDS011;13991;51.174;4.438;2022-07-03T15:56:34;4.87;;;0.40;;
26080;SDS011;13991;51.174;4.438;2022-07-03T15:59:02;0.87;;;0.37;;
26080;SDS011;13991;51.174;4.438;2022-07-03T16:01:31;3.80;;;0.47;;
26080;SDS011;13991;51.174;4.438;2022-07-03T16:06:57;5.23;;;0.40;;
26080;SDS011;13991;51.174;4.438;2022-07-03T16:09:25;6.37;;;0.90;;
26080;SDS011;13991;51.174;4.438;2022-07-03T16:11:51;2.17;;;0.50;;
26080;SDS011;13991;51.174;4.438;2022-07-03T16:14:17;4.70;;;0.40;;
26080;SDS011;13991;51.174;4.438;2022-07-03T16:16:43;1.53;;;0.27;;
26080;SDS011;13991;51.174;4.438;2022-07-03T16:19:10;3.93;;;0.40;;
26080;SDS011;13991;51.174;4.438;2022-07-03T16:21:37;5.63;;;0.70;;
26080;SDS011;13991;51.174;4.438;2022-07-03T16:24:04;5.90;;;0.50;;
26080;SDS011;13991;51.174;4.438;2022-07-03T16:26:51;3.80;;;0.40;;
26080;SDS011;13991;51.174;4.438;2022-07-03T16:29:17;4.93;;;0.43;;
26080;SDS011;13991;51.174;4.438;2022-07-03T16:31:44;1.57;;;0.50;;
26080;SDS011;13991;51.174;4.438;2022-07-03T16:34:15;4.30;;;0.40;;
26080;SDS011;13991;51.174;4.438;2022-07-03T16:36:53;6.33;;;0.60;;
26080;SDS011;13991;51.174;4.438;2022-07-03T16:39:24;5.13;;;0.73;;
26080;SDS011;13991;51.174;4.438;2022-07-03T16:41:55;6.20;;;0.53;;
26080;SDS011;13991;51.174;4.438;2022-07-03T16:44:22;8.67;;;0.60;;